createdAt,value
2022-10-06T03:40:12.968Z,11.31
2022-10-06T03:51:09.353Z,11.59
2022-10-06T03:55:39.975Z,11.47
2022-10-06T07:10:31.866Z,13.15
2022-10-06T07:13:17.396Z,12.78
2022-10-06T07:16:09.629Z,13.20
2022-10-06T07:22:14.368Z,13.40
2022-10-06T07:25:02.736Z,13.42
2022-10-06T07:27:38.988Z,13.47
2022-10-06T07:30:16.514Z,13.45
2022-10-06T07:32:47.001Z,13.58
2022-10-06T07:35:21.646Z,13.90
2022-10-06T07:37:56.184Z,13.87
2022-10-06T07:40:29.886Z,13.85
2022-10-06T07:43:04.595Z,13.71
2022-10-06T07:45:42.901Z,13.82
2022-10-06T07:48:14.637Z,13.92
2022-10-06T07:50:49.849Z,14.19
2022-10-06T07:53:35.903Z,14.29
2022-10-06T07:56:13.442Z,14.41
2022-10-06T07:58:53.731Z,14.69
2022-10-06T08:01:27.469Z,14.57
2022-10-06T08:04:21.629Z,14.86
2022-10-06T08:06:51.327Z,15.22
2022-10-06T08:09:28.594Z,15.08
2022-10-06T08:12:24.405Z,14.98
2022-10-06T08:14:55.802Z,15.02
2022-10-06T08:17:26.285Z,15.20
2022-10-06T08:19:57.132Z,15.32
2022-10-06T08:22:31.602Z,15.33
2022-10-06T08:25:06.753Z,15.52
2022-10-06T08:27:39.461Z,15.70
2022-10-06T08:30:12.876Z,16.14
2022-10-06T08:32:43.843Z,15.92
2022-10-06T08:35:23.200Z,15.98
2022-10-06T08:37:54.496Z,16.12
2022-10-06T08:40:23.852Z,16.11
2022-10-06T08:42:58.676Z,16.31
2022-10-06T08:45:38.959Z,16.55
2022-10-06T08:48:19.144Z,16.58
2022-10-06T08:50:51.435Z,16.72
2022-10-06T08:53:23.431Z,16.66
2022-10-06T08:55:54.089Z,16.91
2022-10-06T09:01:05.635Z,17.06
2022-10-06T09:03:36.106Z,17.30
2022-10-06T12:20:05.547Z,22.17
2022-10-06T12:29:46.640Z,22.19
2022-10-06T13:23:56.503Z,23.48
2022-10-06T13:30:39.018Z,23.99
2022-10-06T13:33:24.239Z,24.02
2022-10-06T13:36:25.913Z,23.99
2022-10-06T13:39:07.256Z,23.70
2022-10-06T13:48:39.346Z,23.86
2022-10-06T13:51:24.712Z,23.77
2022-10-06T14:00:54.594Z,23.54
2022-10-06T14:03:40.888Z,23.13
2022-10-06T14:06:36.716Z,23.42
2022-10-06T23:22:24.539Z,15.41
2022-10-06T23:25:27.112Z,15.48
2022-10-06T23:28:16.774Z,15.45
2022-10-06T23:30:47.006Z,15.52
2022-10-06T23:34:10.106Z,15.35
2022-10-06T23:37:11.489Z,15.55
2022-10-06T23:40:02.208Z,15.50
2022-10-06T23:43:32.848Z,15.49
2022-10-06T23:47:23.040Z,15.56
